createdAt,value
2022-10-19T00:01:16.714Z,64.33
2022-10-19T00:03:46.872Z,65.05
2022-10-19T00:06:20.233Z,64.41
2022-10-19T00:08:48.217Z,64.09
2022-10-19T00:11:16.061Z,63.66
2022-10-19T00:13:44.116Z,63.55
2022-10-19T00:16:14.665Z,63.54
2022-10-19T00:18:43.928Z,64.12
2022-10-19T00:21:18.802Z,63.68
2022-10-19T00:23:49.274Z,63.72
2022-10-19T00:26:17.111Z,63.65
2022-10-19T00:28:45.576Z,62.55
2022-10-19T00:31:17.162Z,62.63
2022-10-19T00:33:46.234Z,63.34
2022-10-19T00:36:18.825Z,63.39
2022-10-19T00:38:47.388Z,62.09
2022-10-19T00:41:17.505Z,62.86
2022-10-19T00:43:59.258Z,62.52
2022-10-19T00:46:29.816Z,62.24
2022-10-19T00:49:04.020Z,62.82
2022-10-19T00:51:39.473Z,62.36
2022-10-19T00:54:09.399Z,61.97
2022-10-19T00:56:41.391Z,61.10
2022-10-19T00:59:10.475Z,61.19
2022-10-19T01:01:38.467Z,60.43
2022-10-19T01:04:06.873Z,60.11
2022-10-19T01:06:36.105Z,58.99
2022-10-19T01:09:04.215Z,59.26
2022-10-19T01:12:07.194Z,59.75
2022-10-19T01:14:47.357Z,59.74
2022-10-19T01:17:33.034Z,59.06
2022-10-19T01:20:28.286Z,60.06
2022-10-19T01:23:14.556Z,60.62
2022-10-19T01:26:01.168Z,60.07
2022-10-19T01:28:29.146Z,60.77
2022-10-19T01:31:14.005Z,61.15
2022-10-19T01:34:10.101Z,61.38
2022-10-19T01:36:44.855Z,60.80
2022-10-19T01:39:38.844Z,61.03
2022-10-19T01:42:19.878Z,61.46
2022-10-19T01:44:55.196Z,60.91
2022-10-19T01:47:27.685Z,61.53
2022-10-19T01:50:25.147Z,60.93
2022-10-19T01:52:55.452Z,60.20
2022-10-19T01:55:26.830Z,60.52
2022-10-19T01:58:00.842Z,61.15
2022-10-19T02:00:31.425Z,60.41
2022-10-19T02:03:02.308Z,61.38
2022-10-19T02:05:33.597Z,61.12
2022-10-19T02:08:06.942Z,61.84
2022-10-19T02:10:38.618Z,61.69
2022-10-19T02:13:08.207Z,60.94
2022-10-19T02:15:41.228Z,61.88
2022-10-19T02:18:12.734Z,62.01
2022-10-19T02:20:41.014Z,62.34
2022-10-19T02:23:09.778Z,62.88
2022-10-19T02:25:37.640Z,63.15
2022-10-19T02:28:07.019Z,62.92
2022-10-19T02:30:36.400Z,63.25
2022-10-19T02:33:04.699Z,62.83
2022-10-19T02:35:33.533Z,62.95
2022-10-19T02:38:04.062Z,62.76
2022-10-19T02:40:36.232Z,62.45
2022-10-19T02:43:09.967Z,62.41
2022-10-19T02:45:46.877Z,61.99
2022-10-19T02:48:21.714Z,62.02
2022-10-19T02:50:49.638Z,61.90
2022-10-19T02:53:18.269Z,62.28
2022-10-19T02:55:49.230Z,62.01
2022-10-19T02:58:17.059Z,61.70
2022-10-19T03:00:45.122Z,61.54
2022-10-19T03:03:13.288Z,60.97
2022-10-19T03:05:41.621Z,61.22
2022-10-19T03:08:09.951Z,60.33
2022-10-19T03:10:38.065Z,60.82
2022-10-19T03:13:05.886Z,60.08
2022-10-19T03:15:33.982Z,60.93
2022-10-19T03:18:01.973Z,60.66
2022-10-19T03:20:30.318Z,60.01
2022-10-19T03:22:58.137Z,61.00
2022-10-19T03:25:26.002Z,60.11
2022-10-19T03:27:53.923Z,60.53
2022-10-19T03:30:21.729Z,60.98
2022-10-19T03:32:49.728Z,60.75
2022-10-19T03:35:17.787Z,61.34
2022-10-19T03:37:45.734Z,61.25
2022-10-19T03:40:13.682Z,61.47
2022-10-19T03:42:41.443Z,60.88
2022-10-19T03:45:09.865Z,61.50
2022-10-19T03:47:37.724Z,61.07
2022-10-19T03:50:06.356Z,61.03
2022-10-19T03:52:34.168Z,60.59
2022-10-19T03:55:02.165Z,60.66
2022-10-19T03:57:29.967Z,61.08
2022-10-19T03:59:57.858Z,60.87
2022-10-19T04:02:26.107Z,60.57
2022-10-19T04:04:53.973Z,60.94
2022-10-19T04:07:21.894Z,60.79
2022-10-19T04:09:50.274Z,60.43
2022-10-19T04:12:18.120Z,60.87
2022-10-19T04:14:56.831Z,60.78
2022-10-19T04:17:25.765Z,59.73
2022-10-19T04:19:53.870Z,60.44
2022-10-19T04:22:21.762Z,60.13
2022-10-19T04:24:49.640Z,60.10
2022-10-19T04:27:17.533Z,59.69
2022-10-19T04:29:45.560Z,60.25
2022-10-19T04:32:13.478Z,60.53
2022-10-19T04:34:41.626Z,60.17
2022-10-19T04:37:09.431Z,60.06
2022-10-19T04:39:37.810Z,60.03
2022-10-19T04:42:05.691Z,59.93
2022-10-19T04:44:33.658Z,60.04
2022-10-19T04:47:01.622Z,59.59
2022-10-19T04:49:29.597Z,59.81
2022-10-19T04:51:57.492Z,59.72
2022-10-19T04:54:25.457Z,59.57
2022-10-19T04:56:53.257Z,59.07
2022-10-19T04:59:21.383Z,58.39
2022-10-19T05:01:49.465Z,58.58
2022-10-19T05:04:17.518Z,58.13
2022-10-19T05:06:45.408Z,58.35
2022-10-19T05:09:13.571Z,58.23
2022-10-19T05:11:41.574Z,57.93
2022-10-19T05:14:09.766Z,56.53
2022-10-19T05:16:37.781Z,55.82
2022-10-19T05:19:05.853Z,56.32
2022-10-19T05:21:33.884Z,56.20
2022-10-19T05:24:02.185Z,56.76
2022-10-19T05:26:30.312Z,56.82
2022-10-19T05:29:00.904Z,56.99
2022-10-19T05:31:31.836Z,57.34
2022-10-19T05:34:01.061Z,56.76
2022-10-19T05:36:31.775Z,56.07
2022-10-19T05:39:03.497Z,57.24
2022-10-19T05:41:31.717Z,56.83
2022-10-19T05:44:01.789Z,55.66
2022-10-19T05:46:31.112Z,56.64
2022-10-19T05:49:00.970Z,56.12
2022-10-19T05:51:29.043Z,56.37
2022-10-19T05:53:57.224Z,56.91
2022-10-19T05:56:28.118Z,56.78
2022-10-19T05:58:58.873Z,56.07
2022-10-19T06:01:28.488Z,55.28
2022-10-19T06:03:59.786Z,55.49
2022-10-19T06:06:28.653Z,55.65
2022-10-19T06:08:57.923Z,56.07
2022-10-19T06:11:35.309Z,55.81
2022-10-19T06:14:06.316Z,55.22
2022-10-19T06:16:35.197Z,55.10
2022-10-19T06:19:05.561Z,55.36
2022-10-19T06:21:34.866Z,55.33
2022-10-19T06:24:05.629Z,55.78
2022-10-19T06:26:34.715Z,55.53
2022-10-19T06:29:04.419Z,54.75
2022-10-19T06:31:35.888Z,56.08
2022-10-19T06:34:05.150Z,56.01
2022-10-19T06:36:33.755Z,56.17
2022-10-19T06:39:02.604Z,56.08
2022-10-19T06:41:31.600Z,55.90
2022-10-19T06:43:59.774Z,55.90
2022-10-19T06:46:28.164Z,55.93
2022-10-19T06:48:58.427Z,55.03
2022-10-19T06:51:28.720Z,54.95
2022-10-19T06:53:57.486Z,55.44
2022-10-19T06:56:26.927Z,55.74
2022-10-19T06:58:55.446Z,55.46
2022-10-19T07:01:24.193Z,54.76
2022-10-19T07:03:53.214Z,54.75
2022-10-19T07:06:22.141Z,54.98
2022-10-19T07:08:50.432Z,53.88
2022-10-19T07:11:20.667Z,53.88
2022-10-19T07:13:48.834Z,54.53
2022-10-19T07:16:21.014Z,54.50
2022-10-19T07:18:54.203Z,54.67
2022-10-19T07:21:23.391Z,54.22
2022-10-19T07:23:51.983Z,54.39
2022-10-19T07:26:26.711Z,53.09
2022-10-19T07:28:58.306Z,54.09
2022-10-19T07:31:29.135Z,52.77
2022-10-19T07:34:02.682Z,52.65
2022-10-19T07:36:33.598Z,52.84
2022-10-19T07:39:02.360Z,53.05
2022-10-19T07:41:30.374Z,53.49
2022-10-19T07:43:58.657Z,54.01
2022-10-19T07:46:28.708Z,54.20
2022-10-19T07:48:56.668Z,54.43
2022-10-19T07:51:26.096Z,54.59
2022-10-19T07:53:54.317Z,54.78
2022-10-19T07:56:24.505Z,54.83
2022-10-19T07:58:54.773Z,55.30
2022-10-19T08:01:26.233Z,55.74
2022-10-19T08:04:43.224Z,56.20
2022-10-19T08:06:44.945Z,56.36
2022-10-19T08:09:27.624Z,56.13
2022-10-19T08:12:01.319Z,56.36
2022-10-19T08:14:29.435Z,56.47
2022-10-19T08:16:57.865Z,56.57
2022-10-19T08:19:25.927Z,56.59
2022-10-19T08:21:54.031Z,56.52
2022-10-19T08:24:25.270Z,56.22
2022-10-19T08:26:53.239Z,56.04
2022-10-19T08:29:21.969Z,55.26
2022-10-19T08:31:50.449Z,54.65
2022-10-19T08:34:18.495Z,54.58
2022-10-19T08:36:47.058Z,54.61
2022-10-19T08:39:15.462Z,55.28
2022-10-19T08:41:59.910Z,55.09
2022-10-19T08:44:52.705Z,55.34
2022-10-19T08:47:43.343Z,55.19
2022-10-19T08:50:24.687Z,54.99
2022-10-19T08:53:03.982Z,54.39
2022-10-19T08:56:12.484Z,54.01
2022-10-19T08:58:46.091Z,53.62
2022-10-19T09:01:29.025Z,53.55
2022-10-19T09:04:10.546Z,53.29
2022-10-19T09:06:59.347Z,53.18
2022-10-19T09:09:30.535Z,52.90
2022-10-19T09:12:05.863Z,52.75
2022-10-19T09:14:58.397Z,52.91
2022-10-19T09:17:27.043Z,52.72
2022-10-19T09:19:55.171Z,52.75
2022-10-19T09:22:36.243Z,52.58
2022-10-19T09:25:11.096Z,52.78
2022-10-19T09:27:40.825Z,52.44
2022-10-19T09:30:17.505Z,52.05
2022-10-19T09:32:46.714Z,51.90
2022-10-19T09:35:14.636Z,51.77
2022-10-19T09:37:46.819Z,51.31
2022-10-19T09:40:19.057Z,50.99
2022-10-19T09:42:47.716Z,50.49
2022-10-19T09:45:54.953Z,50.19
2022-10-19T09:48:25.911Z,50.02
2022-10-19T09:51:00.279Z,49.55
2022-10-19T09:53:29.713Z,50.06
2022-10-19T09:55:59.506Z,49.59
2022-10-19T09:58:32.911Z,49.49
2022-10-19T10:01:03.390Z,49.61
2022-10-19T10:03:37.886Z,48.66
2022-10-19T10:06:14.028Z,47.72
2022-10-19T10:08:55.296Z,48.14
2022-10-19T10:11:24.739Z,47.96
2022-10-19T10:13:55.760Z,48.05
2022-10-19T10:16:28.583Z,47.78
2022-10-19T10:19:08.026Z,47.42
2022-10-19T10:21:51.290Z,47.21
2022-10-19T10:24:22.113Z,47.36
2022-10-19T10:27:02.592Z,47.43
2022-10-19T10:29:33.450Z,47.94
2022-10-19T10:32:20.091Z,48.22
2022-10-19T10:35:04.632Z,48.07
2022-10-19T10:37:40.687Z,47.96
2022-10-19T10:40:24.762Z,48.25
2022-10-19T10:42:55.064Z,48.46
2022-10-19T10:45:30.136Z,48.45
2022-10-19T10:50:36.869Z,48.24
2022-10-19T10:53:26.241Z,48.06
2022-10-19T10:55:57.955Z,47.45
2022-10-19T10:58:47.366Z,46.86
2022-10-19T11:01:22.836Z,47.27
2022-10-19T11:04:22.933Z,46.96
2022-10-19T11:06:59.473Z,46.74
2022-10-19T11:09:46.592Z,46.64
2022-10-19T11:12:18.781Z,45.98
2022-10-19T11:15:01.641Z,45.75
2022-10-19T11:17:34.087Z,45.66
2022-10-19T11:20:02.328Z,45.06
2022-10-19T11:22:58.781Z,44.78
2022-10-19T11:25:35.823Z,44.03
2022-10-19T11:28:38.724Z,43.80
2022-10-19T11:31:18.796Z,43.98
2022-10-19T11:33:55.026Z,43.61
2022-10-19T11:37:02.852Z,43.44
2022-10-19T11:39:59.261Z,42.92
2022-10-19T11:42:40.630Z,42.45
2022-10-19T11:45:42.731Z,42.32
2022-10-19T11:48:19.615Z,42.12
2022-10-19T11:50:54.035Z,42.50
2022-10-19T11:53:35.610Z,42.52
2022-10-19T11:56:44.778Z,42.00
2022-10-19T11:59:37.940Z,42.42
2022-10-19T12:02:12.689Z,42.26
2022-10-19T12:05:13.221Z,42.18
2022-10-19T12:07:44.269Z,42.05
2022-10-19T12:10:32.560Z,41.75
2022-10-19T12:13:09.571Z,41.40
2022-10-19T12:15:46.730Z,41.06
2022-10-19T12:18:27.369Z,40.93
2022-10-19T12:20:59.475Z,40.74
2022-10-19T12:23:34.421Z,40.73
2022-10-19T12:26:06.441Z,40.26
2022-10-19T12:28:39.399Z,40.38
2022-10-19T12:31:09.625Z,40.25
2022-10-19T12:33:57.665Z,40.55
2022-10-19T12:36:35.985Z,40.58
2022-10-19T12:39:23.636Z,40.54
2022-10-19T12:42:15.728Z,40.41
2022-10-19T12:45:13.564Z,40.29
2022-10-19T12:48:10.078Z,39.96
2022-10-19T12:50:50.359Z,40.03
2022-10-19T12:53:28.125Z,39.86
2022-10-19T12:56:07.531Z,39.76
2022-10-19T12:58:47.711Z,40.40
2022-10-19T13:01:19.801Z,40.17
2022-10-19T13:03:51.381Z,40.27
2022-10-19T13:06:33.344Z,40.22
2022-10-19T13:09:07.889Z,40.59
2022-10-19T13:11:36.760Z,40.90
2022-10-19T13:14:20.246Z,40.94
2022-10-19T13:16:57.967Z,41.22
2022-10-19T13:19:26.797Z,41.02
2022-10-19T13:22:03.195Z,40.99
2022-10-19T13:24:36.694Z,41.35
2022-10-19T13:27:04.884Z,41.57
2022-10-19T13:29:39.240Z,41.68
2022-10-19T13:32:45.403Z,41.36
2022-10-19T13:35:23.873Z,41.24
2022-10-19T13:38:10.021Z,41.56
2022-10-19T13:40:56.118Z,41.64
2022-10-19T13:43:30.397Z,41.79
2022-10-19T13:46:22.492Z,42.00
2022-10-19T13:49:08.826Z,41.98
2022-10-19T13:52:03.280Z,41.92
2022-10-19T13:54:53.172Z,42.09
2022-10-19T13:58:00.617Z,42.01
2022-10-19T14:00:54.580Z,41.57
2022-10-19T14:03:45.356Z,41.73
2022-10-19T14:06:33.232Z,41.96
2022-10-19T14:09:28.906Z,41.77
2022-10-19T14:12:28.159Z,42.08
2022-10-19T14:14:56.211Z,41.93
2022-10-19T14:17:26.810Z,42.04
2022-10-19T14:19:58.029Z,42.32
2022-10-19T14:22:36.346Z,42.25
2022-10-19T14:25:20.964Z,42.00
2022-10-19T14:27:56.872Z,42.07
2022-10-19T14:30:28.605Z,42.20
2022-10-19T14:33:00.995Z,42.13
2022-10-19T14:35:42.696Z,42.30
2022-10-19T14:38:22.065Z,42.26
2022-10-19T14:40:50.205Z,42.21
2022-10-19T14:43:30.986Z,42.26
2022-10-19T14:46:08.090Z,42.14
2022-10-19T14:48:42.063Z,42.09
2022-10-19T14:51:30.784Z,42.14
2022-10-19T14:54:11.247Z,42.11
2022-10-19T14:57:04.097Z,42.19
2022-10-19T14:59:36.991Z,42.58
2022-10-19T15:02:23.001Z,42.56
2022-10-19T15:04:52.878Z,42.32
2022-10-19T15:07:26.280Z,42.82
2022-10-19T15:10:01.404Z,43.09
2022-10-19T15:12:42.130Z,43.10
2022-10-19T15:15:15.919Z,43.16
2022-10-19T15:17:53.876Z,43.44
2022-10-19T15:20:29.447Z,43.49
2022-10-19T15:22:58.713Z,43.35
2022-10-19T15:25:34.537Z,43.54
2022-10-19T15:28:31.944Z,43.43
2022-10-19T15:31:23.137Z,43.47
2022-10-19T15:33:57.789Z,43.99
2022-10-19T15:36:27.477Z,43.75
2022-10-19T15:39:06.415Z,44.21
2022-10-19T15:41:46.520Z,44.05
2022-10-19T15:44:42.783Z,44.65
2022-10-19T15:47:13.383Z,45.19
2022-10-19T15:49:41.265Z,45.17
2022-10-19T15:52:24.401Z,45.91
2022-10-19T15:54:55.060Z,46.70
2022-10-19T15:57:35.742Z,46.97
2022-10-19T16:00:14.343Z,47.82
2022-10-19T16:02:42.498Z,47.95
2022-10-19T16:05:10.765Z,47.62
2022-10-19T16:07:40.978Z,47.32
2022-10-19T16:10:16.369Z,48.30
2022-10-19T16:12:44.563Z,48.48
2022-10-19T16:15:18.535Z,48.94
2022-10-19T16:17:48.905Z,49.31
2022-10-19T16:20:17.765Z,49.51
2022-10-19T16:22:47.129Z,49.81
2022-10-19T16:25:15.368Z,49.63
2022-10-19T16:27:43.537Z,49.99
2022-10-19T16:30:13.140Z,49.67
2022-10-19T16:35:12.648Z,49.82
2022-10-19T16:37:40.904Z,49.85
2022-10-19T16:40:09.501Z,50.16
2022-10-19T16:42:37.873Z,50.28
2022-10-19T16:45:06.765Z,49.91
2022-10-19T16:47:34.770Z,50.64
2022-10-19T16:50:05.323Z,50.70
2022-10-19T16:52:34.026Z,50.63
2022-10-19T16:55:03.220Z,51.07
2022-10-19T16:57:31.292Z,51.12
2022-10-19T16:59:59.633Z,50.71
2022-10-19T17:02:27.627Z,51.15
2022-10-19T17:04:56.280Z,51.20
2022-10-19T17:07:24.667Z,51.23
2022-10-19T17:09:56.752Z,51.79
2022-10-19T17:12:25.030Z,51.36
2022-10-19T17:14:53.006Z,52.51
2022-10-19T17:17:20.927Z,52.19
2022-10-19T17:19:49.098Z,52.62
2022-10-19T17:22:17.079Z,53.28
2022-10-19T17:24:45.139Z,53.34
2022-10-19T17:27:13.310Z,53.96
2022-10-19T17:29:41.392Z,54.65
2022-10-19T17:32:09.517Z,54.54
2022-10-19T17:34:37.528Z,55.10
2022-10-19T17:37:05.930Z,54.86
2022-10-19T17:39:33.898Z,54.51
2022-10-19T17:42:02.343Z,54.92
2022-10-19T17:44:31.114Z,54.74
2022-10-19T17:47:00.507Z,54.93
2022-10-19T17:49:29.116Z,55.21
2022-10-19T17:51:57.668Z,55.47
2022-10-19T17:54:25.955Z,55.27
2022-10-19T17:56:54.284Z,55.39
2022-10-19T17:59:30.122Z,55.85
2022-10-19T18:02:04.871Z,55.61
2022-10-19T18:04:32.966Z,56.09
2022-10-19T18:07:01.181Z,55.89
2022-10-19T18:09:29.317Z,55.99
2022-10-19T18:11:57.275Z,56.22
2022-10-19T18:14:25.258Z,56.56
2022-10-19T18:16:53.570Z,56.63
2022-10-19T18:19:21.538Z,56.66
2022-10-19T18:21:49.474Z,56.67
2022-10-19T18:24:18.423Z,56.53
2022-10-19T18:26:48.222Z,56.60
2022-10-19T18:29:20.267Z,56.55
2022-10-19T18:31:49.598Z,55.55
2022-10-19T18:34:19.911Z,56.46
2022-10-19T18:36:47.893Z,56.09
2022-10-19T18:39:16.518Z,56.40
2022-10-19T18:41:44.705Z,56.89
2022-10-19T18:44:13.671Z,56.10
2022-10-19T18:46:41.710Z,56.26
2022-10-19T18:49:12.567Z,56.73
2022-10-19T18:51:40.606Z,56.18
2022-10-19T18:54:08.791Z,55.90
2022-10-19T18:56:36.855Z,56.07
2022-10-19T18:59:05.478Z,56.40
2022-10-19T19:01:33.904Z,56.34
2022-10-19T19:04:09.218Z,56.97
2022-10-19T19:06:38.427Z,56.72
2022-10-19T19:09:09.790Z,56.48
2022-10-19T19:11:39.311Z,57.11
2022-10-19T19:14:13.523Z,57.01
2022-10-19T19:16:43.451Z,56.48
2022-10-19T19:19:13.732Z,56.73
2022-10-19T19:21:42.197Z,56.62
2022-10-19T19:24:13.693Z,56.06
2022-10-19T19:26:46.020Z,56.39
2022-10-19T19:29:14.507Z,56.66
2022-10-19T19:31:42.924Z,56.76
2022-10-19T19:34:11.075Z,56.37
2022-10-19T19:39:09.697Z,56.44
2022-10-19T19:41:37.959Z,56.54
2022-10-19T19:44:06.171Z,57.02
2022-10-19T19:46:34.596Z,56.91
2022-10-19T19:49:04.415Z,56.40
2022-10-19T19:51:33.556Z,56.68
2022-10-19T19:54:01.554Z,56.95
2022-10-19T19:56:29.497Z,56.77
2022-10-19T19:58:59.642Z,55.99
2022-10-19T20:01:27.683Z,56.26
2022-10-19T20:03:58.640Z,56.12
2022-10-19T20:06:27.391Z,55.91
2022-10-19T20:08:55.973Z,55.51
2022-10-19T20:11:25.790Z,55.97
2022-10-19T20:13:53.904Z,56.61
2022-10-19T20:16:26.726Z,56.50
2022-10-19T20:19:03.925Z,56.85
2022-10-19T20:21:31.900Z,56.37
2022-10-19T20:24:00.454Z,56.23
2022-10-19T20:26:29.519Z,55.53
2022-10-19T20:28:57.871Z,54.83
2022-10-19T20:31:26.197Z,55.22
2022-10-19T20:33:54.243Z,55.33
2022-10-19T20:36:26.161Z,54.65
2022-10-19T20:38:56.834Z,54.48
2022-10-19T20:41:26.702Z,54.77
2022-10-19T20:43:55.399Z,55.44
2022-10-19T20:46:26.219Z,55.03
2022-10-19T20:48:56.524Z,55.12
2022-10-19T20:51:31.613Z,54.63
2022-10-19T20:54:02.922Z,55.37
2022-10-19T20:56:35.332Z,54.69
2022-10-19T20:59:09.400Z,53.76
2022-10-19T21:01:39.860Z,53.29
2022-10-19T21:04:10.210Z,53.48
2022-10-19T21:06:41.666Z,54.20
2022-10-19T21:09:11.495Z,54.23
2022-10-19T21:11:41.968Z,54.22
2022-10-19T21:14:29.920Z,54.44
2022-10-19T21:16:59.666Z,54.52
2022-10-19T21:19:29.049Z,54.02
2022-10-19T21:22:02.102Z,53.37
2022-10-19T21:24:33.900Z,53.51
2022-10-19T21:27:05.113Z,53.70
2022-10-19T21:29:34.090Z,53.60
2022-10-19T21:32:02.472Z,53.39
2022-10-19T21:34:31.865Z,53.68
2022-10-19T21:37:00.312Z,53.13
2022-10-19T21:39:28.667Z,52.92
2022-10-19T21:41:56.907Z,52.52
2022-10-19T21:44:24.916Z,52.15
2022-10-19T21:46:53.064Z,52.41
2022-10-19T21:49:21.478Z,52.38
2022-10-19T21:51:52.397Z,52.69
2022-10-19T21:54:23.685Z,51.77
2022-10-19T21:56:51.828Z,52.42
2022-10-19T21:59:19.926Z,52.01
2022-10-19T22:01:48.405Z,52.57
2022-10-19T22:04:17.956Z,52.25
2022-10-19T22:06:46.343Z,52.04
2022-10-19T22:09:18.899Z,52.37
2022-10-19T22:11:47.241Z,51.97
2022-10-19T22:14:16.676Z,52.00
2022-10-19T22:16:45.133Z,52.72
2022-10-19T22:19:14.204Z,53.56
2022-10-19T22:21:42.213Z,53.54
2022-10-19T22:24:15.397Z,53.50
2022-10-19T22:26:48.657Z,52.55
2022-10-19T22:29:16.806Z,53.45
2022-10-19T22:31:44.870Z,53.56
2022-10-19T22:34:15.274Z,54.00
2022-10-19T22:36:44.206Z,53.78
2022-10-19T22:39:13.400Z,53.91
2022-10-19T22:42:19.478Z,52.56
2022-10-19T22:45:25.252Z,53.83
2022-10-19T22:48:31.191Z,53.02
2022-10-19T22:51:37.160Z,52.52
2022-10-19T22:54:06.200Z,52.44
2022-10-19T22:56:34.459Z,52.98
2022-10-19T22:59:05.005Z,52.95
2022-10-19T23:01:33.610Z,53.42
2022-10-19T23:04:01.739Z,53.46
2022-10-19T23:06:30.215Z,53.86
2022-10-19T23:08:58.650Z,53.94
2022-10-19T23:11:26.659Z,54.11
2022-10-19T23:13:54.667Z,54.55
2022-10-19T23:16:22.968Z,54.67
2022-10-19T23:18:51.309Z,54.48
2022-10-19T23:21:19.388Z,54.45
2022-10-19T23:23:47.455Z,54.49
2022-10-19T23:26:18.629Z,54.55
2022-10-19T23:28:49.471Z,54.38
2022-10-19T23:31:23.068Z,54.79
2022-10-19T23:33:53.144Z,55.30
2022-10-19T23:36:23.861Z,54.94
2022-10-19T23:38:53.031Z,55.27
2022-10-19T23:41:22.492Z,55.51
2022-10-19T23:43:50.569Z,55.32
2022-10-19T23:46:18.949Z,55.53
2022-10-19T23:48:47.163Z,55.36
2022-10-19T23:51:18.023Z,55.67
2022-10-19T23:53:47.916Z,55.14
2022-10-19T23:56:27.693Z,55.04
2022-10-19T23:58:56.936Z,56.34
